Time;durP1;ratioP1;P1;durP2;ratioP2;P2;SDS_P1;SDS_P2;PMS_P1;PMS_P2;Temp;Humidity;BMP_temperature;BMP_pressure;BME280_temperature;BME280_humidity;BME280_pressure;Samples;Min_cycle;Max_cycle;Signal;HPM_P1;HPM_P2
2021/12/02 00:01:02;;;;;;;43.30;7.65;;;9.70;92.70;;;;;;5029346;28;20037;-60
2021/12/02 00:03:28;;;;;;;28.80;6.78;;;9.70;92.60;;;;;;5025909;28;20414;-60
2021/12/02 00:05:54;;;;;;;40.65;7.70;;;9.70;92.60;;;;;;5027325;28;20032;-60
2021/12/02 00:08:19;;;;;;;29.70;7.20;;;9.70;92.70;;;;;;5010854;28;20024;-60
2021/12/02 00:10:45;;;;;;;34.92;7.38;;;9.70;92.70;;;;;;5026664;28;20103;-60
2021/12/02 00:13:11;;;;;;;34.35;6.18;;;9.70;92.70;;;;;;5009436;28;20036;-60
2021/12/02 00:15:53;;;;;;;22.52;5.90;;;9.60;92.60;;;;;;5029407;28;20025;-60
2021/12/02 00:21:04;;;;;;;31.17;6.50;;;9.60;92.50;;;;;;5027424;28;20039;-60
2021/12/02 00:23:49;;;;;;;27.95;5.82;;;9.60;92.50;;;;;;5013973;28;20021;-60
2021/12/02 00:26:15;;;;;;;28.40;5.40;;;9.60;92.50;;;;;;5061933;28;20033;-61
2021/12/02 00:28:41;;;;;;;17.13;5.03;;;9.60;92.50;;;;;;5011059;28;20060;-61
2021/12/02 00:31:14;;;;;;;27.15;6.22;;;9.50;92.50;;;;;;5011915;28;20060;-61
2021/12/02 00:33:39;;;;;;;28.60;6.13;;;9.50;92.60;;;;;;5044398;28;20048;-61
2021/12/02 00:36:05;;;;;;;30.23;5.32;;;9.50;92.60;;;;;;5026373;28;20052;-61
2021/12/02 00:38:30;;;;;;;28.63;5.53;;;9.50;92.70;;;;;;5009226;28;20340;-60
2021/12/02 00:40:56;;;;;;;19.83;5.05;;;9.50;92.70;;;;;;5011913;28;20028;-61
2021/12/02 00:43:21;;;;;;;20.35;5.93;;;9.50;92.80;;;;;;5028157;28;20044;-60
2021/12/02 00:45:47;;;;;;;20.25;5.22;;;9.40;92.90;;;;;;5010923;28;20041;-60
2021/12/02 00:48:13;;;;;;;14.63;4.72;;;9.40;92.90;;;;;;5042730;28;20392;-60
2021/12/02 00:50:41;;;;;;;18.50;5.28;;;9.40;92.90;;;;;;5010493;28;20017;-61
2021/12/02 00:53:07;;;;;;;17.13;4.95;;;9.40;92.90;;;;;;5028133;28;20033;-61
2021/12/02 00:55:34;;;;;;;19.27;4.93;;;9.40;92.90;;;;;;5046210;28;20021;-60
2021/12/02 00:58:00;;;;;;;22.63;4.57;;;9.40;92.90;;;;;;5011175;28;20105;-61
2021/12/02 01:00:25;;;;;;;16.92;5.07;;;9.40;92.90;;;;;;5007964;28;20467;-60
2021/12/02 01:02:51;;;;;;;19.08;4.97;;;9.40;93.00;;;;;;5027533;28;20036;-60
2021/12/02 01:05:17;;;;;;;13.68;4.35;;;9.40;93.10;;;;;;5010713;28;20049;-60
2021/12/02 01:07:43;;;;;;;20.33;5.05;;;9.40;93.10;;;;;;5027488;28;20024;-60
2021/12/02 01:10:08;;;;;;;20.10;5.40;;;9.30;93.20;;;;;;5009194;28;20515;-60
2021/12/02 01:12:37;;;;;;;20.75;4.70;;;9.40;93.20;;;;;;5010925;28;20050;-60
2021/12/02 01:15:06;;;;;;;19.67;4.72;;;9.40;93.20;;;;;;5029256;28;20106;-60
2021/12/02 01:17:32;;;;;;;16.88;4.30;;;9.30;93.20;;;;;;5014168;28;20098;-61
2021/12/02 01:19:58;;;;;;;12.07;3.90;;;9.30;93.30;;;;;;5031414;28;20037;-60
2021/12/02 01:22:24;;;;;;;13.10;3.45;;;9.30;93.30;;;;;;5014943;28;20039;-60
2021/12/02 01:24:50;;;;;;;17.05;4.15;;;9.30;93.30;;;;;;5046146;28;20082;-61
2021/12/02 01:27:15;;;;;;;11.50;3.65;;;9.30;93.30;;;;;;5012629;28;20025;-60
2021/12/02 01:29:41;;;;;;;9.50;4.28;;;9.30;93.30;;;;;;5029586;28;20020;-60
2021/12/02 01:32:07;;;;;;;13.45;4.18;;;9.20;93.30;;;;;;5030388;28;20124;-60
2021/12/02 01:34:33;;;;;;;16.38;4.20;;;9.30;93.30;;;;;;5030261;28;20028;-60
2021/12/02 01:36:59;;;;;;;17.23;3.83;;;9.20;93.30;;;;;;5028955;28;20468;-60
2021/12/02 01:39:25;;;;;;;10.75;3.20;;;9.20;93.30;;;;;;5029055;28;20036;-61
2021/12/02 01:41:53;;;;;;;11.60;3.13;;;9.20;93.30;;;;;;5011584;28;20029;-61
2021/12/02 01:44:19;;;;;;;14.13;4.50;;;9.20;93.30;;;;;;5029168;28;20889;-60
2021/12/02 01:46:50;;;;;;;15.63;3.33;;;9.20;93.30;;;;;;5014348;28;20341;-60
2021/12/02 01:49:16;;;;;;;15.85;3.83;;;9.20;93.30;;;;;;5031549;28;20484;-60
2021/12/02 01:51:47;;;;;;;15.05;3.78;;;9.20;93.30;;;;;;5030515;28;20021;-60
2021/12/02 01:54:18;;;;;;;16.27;4.03;;;9.20;93.30;;;;;;5029168;28;20039;-61
2021/12/02 01:56:48;;;;;;;9.40;3.05;;;9.20;93.20;;;;;;5028353;28;20044;-61
2021/12/02 01:59:16;;;;;;;14.75;3.00;;;9.20;93.30;;;;;;5013193;28;20048;-60
2021/12/02 02:01:44;;;;;;;18.70;4.10;;;9.20;93.30;;;;;;5045718;28;20027;-61
2021/12/02 02:04:09;;;;;;;9.63;3.25;;;9.20;93.30;;;;;;5012492;28;20346;-60
2021/12/02 02:06:41;;;;;;;8.48;3.38;;;9.10;93.30;;;;;;5010897;28;20725;-60
2021/12/02 02:09:07;;;;;;;12.02;3.00;;;9.10;93.40;;;;;;5028157;28;20023;-60
2021/12/02 02:11:33;;;;;;;10.15;3.63;;;9.10;93.40;;;;;;5011619;28;20048;-61
2021/12/02 02:13:59;;;;;;;14.73;3.90;;;9.10;93.40;;;;;;5013681;28;20415;-61
2021/12/02 02:16:25;;;;;;;12.27;3.60;;;9.10;93.40;;;;;;5012744;28;20174;-60
2021/12/02 02:18:50;;;;;;;7.82;2.97;;;9.10;93.40;;;;;;5027839;28;20025;-61
2021/12/02 02:21:18;;;;;;;9.85;3.05;;;9.20;93.50;;;;;;5027436;28;20086;-61
2021/12/02 02:23:51;;;;;;;8.48;2.97;;;9.10;93.40;;;;;;5028172;28;20033;-61
2021/12/02 02:26:27;;;;;;;9.30;3.53;;;9.10;93.40;;;;;;5014444;28;20025;-60
2021/12/02 02:28:55;;;;;;;11.32;3.50;;;9.10;93.40;;;;;;5016503;28;20558;-60
2021/12/02 02:31:21;;;;;;;11.07;2.50;;;9.10;93.40;;;;;;5013066;28;20040;-60
2021/12/02 02:33:49;;;;;;;8.02;3.00;;;9.10;93.40;;;;;;5011193;28;20025;-61
2021/12/02 02:36:15;;;;;;;10.98;2.38;;;9.20;93.50;;;;;;5043721;28;20033;-61
2021/12/02 02:38:41;;;;;;;14.68;3.58;;;9.10;93.40;;;;;;5029383;28;20418;-61
2021/12/02 02:41:09;;;;;;;9.90;2.70;;;9.10;93.50;;;;;;5027731;28;20028;-61
2021/12/02 02:43:35;;;;;;;11.90;3.00;;;9.10;93.50;;;;;;5045127;28;20024;-61
2021/12/02 02:46:00;;;;;;;9.65;2.72;;;9.10;93.50;;;;;;5010523;28;20032;-61
2021/12/02 02:48:26;;;;;;;16.42;3.20;;;9.10;93.50;;;;;;5010749;28;20029;-62
2021/12/02 02:50:51;;;;;;;10.35;3.72;;;9.10;93.50;;;;;;5027714;28;20037;-61
2021/12/02 02:53:22;;;;;;;8.52;2.90;;;9.10;93.50;;;;;;5028402;28;20036;-60
2021/12/02 02:56:01;;;;;;;11.20;3.20;;;9.10;93.40;;;;;;5028079;28;20081;-61
2021/12/02 03:06:29;;;;;;;8.52;2.88;;;9.00;93.30;;;;;;5043349;28;20028;-61
2021/12/02 03:09:02;;;;;;;7.25;3.17;;;9.10;93.40;;;;;;5029870;28;20476;-61
2021/12/02 03:11:37;;;;;;;10.00;2.78;;;9.00;93.40;;;;;;5013465;28;20421;-60
2021/12/02 03:14:10;;;;;;;12.52;2.63;;;9.10;93.40;;;;;;5060756;28;20121;-60
2021/12/02 03:16:45;;;;;;;8.18;2.90;;;9.00;93.40;;;;;;5012097;28;20063;-60
2021/12/02 03:19:14;;;;;;;8.95;3.00;;;9.00;93.40;;;;;;5031975;28;20039;-61
2021/12/02 03:21:40;;;;;;;7.07;2.97;;;9.00;93.40;;;;;;5043369;28;20016;-61
2021/12/02 03:24:06;;;;;;;5.85;2.72;;;9.00;93.40;;;;;;5059828;28;20448;-61
2021/12/02 03:26:32;;;;;;;11.52;3.00;;;9.20;93.50;;;;;;5011405;28;20020;-60
2021/12/02 03:28:58;;;;;;;10.95;2.95;;;9.00;93.50;;;;;;5027323;28;20036;-60
2021/12/02 03:31:23;;;;;;;10.05;2.53;;;9.00;93.40;;;;;;5013064;28;20025;-60
2021/12/02 03:33:49;;;;;;;8.85;3.38;;;9.00;93.40;;;;;;5008742;28;20113;-61
2021/12/02 03:36:15;;;;;;;8.43;3.25;;;9.00;93.40;;;;;;5010323;28;21237;-61
2021/12/02 03:38:40;;;;;;;7.47;3.00;;;9.00;93.50;;;;;;5010221;28;20048;-60
2021/12/02 03:41:06;;;;;;;5.05;2.65;;;9.00;93.50;;;;;;5009675;28;20033;-61
2021/12/02 03:43:36;;;;;;;12.38;2.83;;;9.00;93.50;;;;;;5010809;28;20016;-61
2021/12/02 03:46:01;;;;;;;6.45;2.38;;;9.00;93.50;;;;;;5026538;28;20132;-61
2021/12/02 03:48:27;;;;;;;5.88;2.40;;;9.00;93.50;;;;;;5026519;28;20092;-61
2021/12/02 03:50:52;;;;;;;7.20;2.72;;;9.00;93.50;;;;;;5010191;28;20395;-60
2021/12/02 03:53:18;;;;;;;7.72;2.85;;;9.00;93.50;;;;;;5059056;28;20448;-61
2021/12/02 03:55:43;;;;;;;9.88;3.00;;;9.00;93.40;;;;;;5027933;28;20040;-61
2021/12/02 03:58:09;;;;;;;6.90;2.83;;;9.00;93.40;;;;;;5027175;28;20083;-61
2021/12/02 04:00:34;;;;;;;5.10;2.42;;;9.00;93.40;;;;;;5011115;28;20213;-61
2021/12/02 04:03:00;;;;;;;7.82;2.67;;;8.90;93.40;;;;;;5026529;28;20024;-61
2021/12/02 04:05:25;;;;;;;8.20;2.70;;;8.90;93.40;;;;;;5043450;28;20064;-60
2021/12/02 04:07:51;;;;;;;5.10;2.47;;;8.90;93.40;;;;;;5010237;28;20075;-60
2021/12/02 04:10:18;;;;;;;4.57;2.28;;;8.90;93.50;;;;;;5011309;28;20016;-61
2021/12/02 04:15:16;;;;;;;9.15;2.38;;;8.90;93.40;;;;;;5026272;28;20098;-60
2021/12/02 04:17:42;;;;;;;7.32;2.40;;;8.90;93.40;;;;;;5011843;28;20074;-60
2021/12/02 04:20:16;;;;;;;5.28;2.30;;;8.90;93.40;;;;;;5010415;28;21059;-60
2021/12/02 04:22:42;;;;;;;9.18;2.78;;;8.90;93.40;;;;;;5027360;28;20027;-61
2021/12/02 04:25:08;;;;;;;8.30;2.58;;;8.90;93.40;;;;;;5011998;28;20025;-61
2021/12/02 04:27:34;;;;;;;4.25;1.98;;;9.00;93.40;;;;;;5028084;28;20507;-60
2021/12/02 04:30:00;;;;;;;6.40;2.63;;;8.80;93.30;;;;;;5024674;28;20021;-60
2021/12/02 04:32:25;;;;;;;6.93;2.67;;;8.90;93.40;;;;;;5027199;28;20044;-61
2021/12/02 04:34:51;;;;;;;5.15;2.40;;;8.80;93.30;;;;;;5022900;28;20028;-61
2021/12/02 04:37:16;;;;;;;9.23;2.83;;;8.80;93.30;;;;;;5011959;28;20043;-61
2021/12/02 04:39:42;;;;;;;6.50;2.55;;;8.90;93.30;;;;;;5010394;28;20035;-61
2021/12/02 04:42:07;;;;;;;6.35;2.13;;;8.80;93.30;;;;;;5025302;28;20029;-60
2021/12/02 04:44:33;;;;;;;5.78;2.45;;;8.80;93.30;;;;;;5026523;28;20036;-60
2021/12/02 04:46:58;;;;;;;5.85;2.28;;;8.80;93.30;;;;;;5010163;28;20033;-61
2021/12/02 04:49:24;;;;;;;4.95;2.30;;;8.80;93.30;;;;;;5014106;28;20585;-60
2021/12/02 04:51:49;;;;;;;5.95;2.80;;;8.80;93.30;;;;;;5064062;28;20040;-61
2021/12/02 04:54:15;;;;;;;5.75;2.58;;;8.80;93.30;;;;;;5046948;28;20493;-61
2021/12/02 04:56:41;;;;;;;5.00;2.38;;;8.80;93.30;;;;;;5014822;28;20614;-60
2021/12/02 04:59:06;;;;;;;9.43;3.33;;;8.80;93.30;;;;;;5030712;28;21138;-60
2021/12/02 05:01:32;;;;;;;4.90;2.97;;;8.80;93.30;;;;;;5014305;28;20036;-60
2021/12/02 05:03:57;;;;;;;13.25;2.95;;;8.80;93.30;;;;;;5049049;28;20434;-61
2021/12/02 05:06:23;;;;;;;12.52;3.35;;;8.80;93.30;;;;;;5028068;28;20534;-61
2021/12/02 05:08:48;;;;;;;15.68;2.92;;;8.80;93.30;;;;;;5014295;28;20025;-61
2021/12/02 05:11:14;;;;;;;12.10;3.60;;;8.80;93.30;;;;;;5029683;28;20032;-60
2021/12/02 05:13:39;;;;;;;9.73;3.17;;;8.80;93.30;;;;;;5029266;28;20086;-61
2021/12/02 05:16:05;;;;;;;69.82;7.50;;;8.80;93.30;;;;;;5031742;28;20377;-61
2021/12/02 05:18:30;;;;;;;50.80;6.07;;;8.80;93.30;;;;;;5046457;28;20033;-61
2021/12/02 05:20:57;;;;;;;42.33;5.35;;;8.80;93.40;;;;;;5013756;28;20024;-61
2021/12/02 05:23:22;;;;;;;38.15;4.75;;;8.80;93.40;;;;;;5046483;28;20102;-61
2021/12/02 05:25:48;;;;;;;30.08;5.10;;;8.70;93.30;;;;;;5029641;28;20107;-61
2021/12/02 05:28:18;;;;;;;84.95;7.63;;;8.80;93.40;;;;;;5030035;28;20476;-61
2021/12/02 05:30:44;;;;;;;96.05;10.15;;;8.80;93.40;;;;;;5031932;28;20035;-60
2021/12/02 05:33:10;;;;;;;88.55;8.05;;;8.80;93.40;;;;;;5012643;28;20492;-60
2021/12/02 05:35:35;;;;;;;48.63;5.78;;;8.80;93.40;;;;;;5014672;28;20032;-60
2021/12/02 05:38:01;;;;;;;239.30;20.15;;;8.80;93.40;;;;;;5013349;28;20625;-60
2021/12/02 05:40:26;;;;;;;228.15;18.92;;;8.80;93.60;;;;;;5047401;28;20737;-61
2021/12/02 05:42:52;;;;;;;271.35;22.27;;;8.80;93.60;;;;;;5047693;28;20129;-60
2021/12/02 05:45:17;;;;;;;333.75;29.88;;;8.70;93.30;;;;;;5036089;28;20074;-60
2021/12/02 05:47:43;;;;;;;243.38;20.40;;;8.70;93.30;;;;;;5030638;28;20051;-61
2021/12/02 05:50:09;;;;;;;192.05;17.92;;;8.70;93.40;;;;;;5011772;28;20031;-60
2021/12/02 05:52:34;;;;;;;166.07;14.35;;;8.70;93.30;;;;;;5013905;28;20117;-60
2021/12/02 05:55:00;;;;;;;145.07;13.48;;;8.70;93.30;;;;;;5030882;28;20464;-60
2021/12/02 05:57:25;;;;;;;124.90;12.63;;;8.70;93.30;;;;;;5012213;28;20486;-61
2021/12/02 05:59:51;;;;;;;104.50;11.85;;;8.70;93.30;;;;;;5026020;28;20033;-61
2021/12/02 06:02:16;;;;;;;119.85;12.60;;;8.70;93.20;;;;;;5028090;28;20117;-60
2021/12/02 06:04:44;;;;;;;127.70;11.52;;;8.70;93.30;;;;;;5027670;28;20546;-60
2021/12/02 06:07:09;;;;;;;124.03;11.68;;;8.70;93.20;;;;;;5025547;28;20623;-60
2021/12/02 06:09:35;;;;;;;99.53;10.43;;;8.70;93.20;;;;;;5010661;28;20058;-61
2021/12/02 06:12:01;;;;;;;109.75;10.98;;;8.70;93.20;;;;;;5010107;28;20579;-60
2021/12/02 06:14:26;;;;;;;130.35;11.73;;;8.70;93.10;;;;;;5034380;28;20535;-60
2021/12/02 06:16:52;;;;;;;110.55;11.15;;;8.70;93.10;;;;;;5027134;28;20048;-60
2021/12/02 06:19:17;;;;;;;89.63;9.95;;;8.70;93.10;;;;;;5027330;28;21092;-60
2021/12/02 06:21:43;;;;;;;91.72;11.05;;;8.70;93.10;;;;;;5015696;28;20072;-60
2021/12/02 06:24:08;;;;;;;87.30;13.20;;;8.70;93.10;;;;;;5042607;28;20099;-61
2021/12/02 06:26:34;;;;;;;77.32;11.90;;;8.70;93.10;;;;;;5008075;28;20039;-61
2021/12/02 06:29:00;;;;;;;105.18;12.27;;;8.70;93.10;;;;;;5039106;28;20125;-60
2021/12/02 06:31:25;;;;;;;94.82;11.07;;;8.70;93.00;;;;;;5026611;28;20060;-61
2021/12/02 06:33:51;;;;;;;78.78;10.63;;;8.70;93.10;;;;;;5042373;28;20495;-60
2021/12/02 06:36:16;;;;;;;99.43;10.82;;;8.70;93.10;;;;;;5026895;28;20395;-60
2021/12/02 06:38:42;;;;;;;68.75;8.80;;;8.70;93.10;;;;;;5025168;28;20385;-61
2021/12/02 06:41:08;;;;;;;66.30;8.60;;;8.70;93.10;;;;;;5041443;28;20027;-60
2021/12/02 06:43:34;;;;;;;73.47;10.40;;;8.70;93.10;;;;;;5024446;28;20037;-60
2021/12/02 06:45:59;;;;;;;82.60;10.00;;;8.70;93.20;;;;;;5009030;28;20119;-60
2021/12/02 06:48:25;;;;;;;76.95;8.55;;;8.90;93.20;;;;;;5039586;28;20021;-61
2021/12/02 06:50:51;;;;;;;63.15;8.77;;;8.70;93.20;;;;;;5009861;28;20029;-61
2021/12/02 06:53:17;;;;;;;75.28;9.80;;;8.70;93.20;;;;;;5022289;28;20030;-61
2021/12/02 06:55:43;;;;;;;72.22;10.43;;;8.60;93.20;;;;;;5021714;28;20044;-61
2021/12/02 06:58:09;;;;;;;71.20;8.65;;;8.60;93.30;;;;;;5006913;28;20033;-61
2021/12/02 07:00:34;;;;;;;82.35;10.45;;;8.70;93.40;;;;;;5040980;28;20024;-60
2021/12/02 07:03:01;;;;;;;55.30;8.02;;;8.70;93.40;;;;;;5025046;28;20370;-60
2021/12/02 07:05:29;;;;;;;74.05;8.60;;;8.70;93.30;;;;;;5024015;28;20056;-61
2021/12/02 07:07:55;;;;;;;51.88;7.55;;;8.70;93.20;;;;;;5008573;28;20028;-60
2021/12/02 07:10:23;;;;;;;197.90;16.23;;;8.70;93.30;;;;;;5021550;28;20930;-61
2021/12/02 07:12:52;;;;;;;150.60;13.07;;;8.60;93.20;;;;;;5024075;28;20025;-61
2021/12/02 07:15:26;;;;;;;117.95;12.13;;;8.60;93.20;;;;;;5019021;28;20052;-61
2021/12/02 07:17:59;;;;;;;102.75;12.10;;;8.60;93.20;;;;;;5008086;28;20027;-60
2021/12/02 07:20:35;;;;;;;125.47;13.07;;;8.60;93.20;;;;;;5022486;28;20507;-60
2021/12/02 07:23:00;;;;;;;108.85;13.30;;;8.60;93.20;;;;;;5024034;28;20110;-61
2021/12/02 07:25:27;;;;;;;88.30;11.38;;;8.60;93.20;;;;;;5040157;28;20064;-60
2021/12/02 07:27:52;;;;;;;72.40;11.73;;;8.60;93.20;;;;;;5005124;28;20025;-61
2021/12/02 07:30:18;;;;;;;96.93;12.13;;;8.60;93.10;;;;;;5007654;28;20036;-61
2021/12/02 07:32:55;;;;;;;94.10;11.77;;;8.60;93.10;;;;;;5020039;28;20044;-60
2021/12/02 07:35:21;;;;;;;99.15;14.35;;;8.60;93.10;;;;;;5024935;28;20739;-60
2021/12/02 07:37:51;;;;;;;155.18;16.95;;;8.60;93.20;;;;;;5006798;28;20033;-61
2021/12/02 07:40:17;;;;;;;146.52;15.38;;;8.60;93.10;;;;;;5025125;28;20032;-61
2021/12/02 07:42:46;;;;;;;133.60;14.63;;;8.60;93.20;;;;;;5008258;28;20051;-60
2021/12/02 07:45:12;;;;;;;119.45;14.60;;;8.60;93.20;;;;;;5008845;28;20025;-60
2021/12/02 07:47:38;;;;;;;87.03;11.02;;;8.60;93.10;;;;;;5024442;28;20126;-60
2021/12/02 07:50:08;;;;;;;96.65;11.57;;;8.60;93.20;;;;;;5024868;28;20036;-60
2021/12/02 07:52:34;;;;;;;83.75;10.93;;;8.80;93.10;;;;;;5022201;28;20040;-60
2021/12/02 07:55:02;;;;;;;90.57;11.15;;;8.60;93.10;;;;;;5017525;28;20033;-61
2021/12/02 07:57:27;;;;;;;76.47;11.10;;;8.60;93.10;;;;;;5021613;28;20041;-60
2021/12/02 07:59:53;;;;;;;65.93;9.55;;;8.60;93.10;;;;;;5007084;28;20044;-60
2021/12/02 08:02:18;;;;;;;64.32;9.05;;;8.60;93.10;;;;;;5004636;28;20033;-60
2021/12/02 08:04:44;;;;;;;64.82;9.00;;;8.60;93.10;;;;;;5007617;28;20191;-61
2021/12/02 08:07:09;;;;;;;64.05;8.45;;;8.60;93.10;;;;;;5022884;28;20440;-61
2021/12/02 08:09:35;;;;;;;65.95;9.50;;;8.60;93.00;;;;;;5006097;28;20036;-61
2021/12/02 08:12:02;;;;;;;60.60;8.32;;;8.60;93.00;;;;;;5037102;28;20132;-60
2021/12/02 08:14:27;;;;;;;58.22;7.93;;;8.60;93.00;;;;;;5006325;28;20033;-61
2021/12/02 08:16:53;;;;;;;62.25;8.52;;;8.60;92.90;;;;;;5005153;28;20037;-61
2021/12/02 08:19:20;;;;;;;78.22;10.00;;;8.60;93.00;;;;;;5035287;28;20040;-61
2021/12/02 08:21:45;;;;;;;73.07;7.88;;;8.60;93.00;;;;;;5029269;28;20041;-61
2021/12/02 08:24:11;;;;;;;45.45;6.47;;;8.60;93.10;;;;;;5025474;28;20240;-60
2021/12/02 08:26:36;;;;;;;58.60;7.85;;;8.60;93.00;;;;;;5027981;28;20112;-61
2021/12/02 08:29:02;;;;;;;42.90;6.30;;;8.60;93.00;;;;;;5044947;28;20070;-61
2021/12/02 08:31:28;;;;;;;37.70;6.38;;;8.50;92.90;;;;;;5061813;28;20025;-60
2021/12/02 08:33:54;;;;;;;39.60;6.50;;;8.50;92.90;;;;;;5027280;28;20032;-60
2021/12/02 08:36:23;;;;;;;30.65;6.20;;;8.50;92.90;;;;;;5028560;28;20033;-60
2021/12/02 08:38:49;;;;;;;35.53;5.68;;;8.50;92.90;;;;;;5029397;28;20120;-60
2021/12/02 08:41:19;;;;;;;33.75;6.07;;;8.50;92.90;;;;;;5003799;28;20036;-61
2021/12/02 08:43:48;;;;;;;31.42;5.40;;;8.60;92.90;;;;;;5025465;28;20029;-61
2021/12/02 08:46:14;;;;;;;28.42;5.43;;;8.50;92.90;;;;;;5020202;28;20075;-60
2021/12/02 08:48:40;;;;;;;34.95;5.75;;;8.50;92.90;;;;;;5005195;28;20044;-60
2021/12/02 08:51:05;;;;;;;29.65;5.35;;;8.60;93.10;;;;;;5008070;28;20021;-60
2021/12/02 08:53:31;;;;;;;57.30;7.00;;;8.60;92.90;;;;;;5010547;28;20055;-61
2021/12/02 08:55:56;;;;;;;55.72;7.25;;;8.60;92.90;;;;;;5026319;28;20075;-60
2021/12/02 08:58:22;;;;;;;46.22;6.90;;;8.60;92.90;;;;;;5008283;28;20396;-60
2021/12/02 09:00:48;;;;;;;37.63;6.30;;;8.60;92.90;;;;;;5024751;28;21288;-60
2021/12/02 09:03:15;;;;;;;50.55;7.63;;;8.70;93.00;;;;;;5006817;28;20396;-61
2021/12/02 09:05:40;;;;;;;47.58;7.70;;;8.60;93.00;;;;;;5041104;28;20048;-61
2021/12/02 09:08:06;;;;;;;72.40;7.82;;;8.60;92.90;;;;;;5011232;28;20487;-60
2021/12/02 09:10:32;;;;;;;46.83;7.20;;;8.60;93.00;;;;;;5044874;28;20031;-60
2021/12/02 09:12:58;;;;;;;96.63;11.40;;;8.60;92.90;;;;;;5029616;28;20032;-60
2021/12/02 09:15:24;;;;;;;71.95;8.93;;;8.60;92.90;;;;;;5028916;28;20055;-60
2021/12/02 09:17:49;;;;;;;64.05;7.40;;;8.60;92.90;;;;;;5045303;28;20032;-60
2021/12/02 09:20:15;;;;;;;71.90;9.32;;;8.60;92.90;;;;;;5015215;28;20470;-60
2021/12/02 09:22:44;;;;;;;78.65;9.68;;;8.60;92.90;;;;;;5046267;28;20020;-61
2021/12/02 09:25:10;;;;;;;87.03;8.60;;;8.70;92.90;;;;;;5015772;28;20430;-61
2021/12/02 09:27:36;;;;;;;82.60;9.32;;;8.70;92.80;;;;;;5042537;28;20028;-61
2021/12/02 09:30:02;;;;;;;62.00;9.07;;;8.70;92.80;;;;;;5060991;28;20648;-61
2021/12/02 09:32:28;;;;;;;66.80;7.60;;;8.70;92.80;;;;;;5012774;28;21232;-61
2021/12/02 09:34:53;;;;;;;64.50;7.95;;;8.70;92.80;;;;;;5010072;28;20132;-61
2021/12/02 09:37:19;;;;;;;123.57;15.10;;;8.70;92.80;;;;;;5009311;28;20412;-60
2021/12/02 09:39:44;;;;;;;70.03;8.50;;;8.70;92.80;;;;;;5028265;28;20510;-61
2021/12/02 09:42:10;;;;;;;73.07;8.63;;;8.70;92.90;;;;;;5029469;28;20123;-60
2021/12/02 09:44:37;;;;;;;86.22;9.27;;;8.70;92.90;;;;;;5012340;28;20696;-61
2021/12/02 09:47:03;;;;;;;63.10;7.88;;;8.70;92.90;;;;;;5027807;28;20028;-60
2021/12/02 09:49:29;;;;;;;65.20;7.63;;;8.70;93.00;;;;;;5011893;28;20040;-60
2021/12/02 09:54:27;;;;;;;70.88;7.30;;;8.70;93.00;;;;;;5026316;28;20098;-60
2021/12/02 09:56:55;;;;;;;67.50;8.57;;;8.70;93.00;;;;;;5042535;28;20021;-60
2021/12/02 09:59:28;;;;;;;59.38;8.68;;;8.70;93.00;;;;;;5026638;28;20182;-61
2021/12/02 10:01:59;;;;;;;54.45;7.40;;;8.70;92.90;;;;;;5041985;28;20082;-60
2021/12/02 10:04:26;;;;;;;79.90;7.75;;;8.70;92.90;;;;;;5008245;28;20045;-61
2021/12/02 10:07:10;;;;;;;55.80;7.80;;;8.80;93.00;;;;;;5040831;28;20017;-60
2021/12/02 10:09:52;;;;;;;75.90;10.15;;;8.80;93.00;;;;;;5056645;28;20077;-61
2021/12/02 10:12:21;;;;;;;55.58;6.43;;;8.70;93.00;;;;;;5024187;28;20171;-61
2021/12/02 10:14:55;;;;;;;40.33;5.68;;;8.80;92.90;;;;;;5039119;28;20151;-60
2021/12/02 10:17:32;;;;;;;42.33;5.47;;;8.80;92.90;;;;;;5038648;28;20114;-61
2021/12/02 10:23:24;;;;;;;78.53;8.10;;;8.80;92.80;;;;;;5042290;28;20087;-61
2021/12/02 10:26:04;;;;;;;60.28;7.28;;;8.80;92.80;;;;;;5030118;28;20260;-60
2021/12/02 10:28:35;;;;;;;55.45;6.93;;;8.80;92.80;;;;;;5029103;28;20113;-61
2021/12/02 10:31:04;;;;;;;52.50;6.57;;;8.80;92.80;;;;;;5007019;28;20116;-60
2021/12/02 10:33:32;;;;;;;77.68;8.13;;;8.80;92.80;;;;;;5008097;28;20080;-61
2021/12/02 10:35:59;;;;;;;76.47;9.60;;;8.80;92.80;;;;;;5016636;28;20366;-61
2021/12/02 10:38:44;;;;;;;81.63;9.93;;;8.80;92.90;;;;;;5005472;28;20504;-61
2021/12/02 10:41:13;;;;;;;74.68;8.88;;;8.80;92.90;;;;;;5024154;28;20120;-61
2021/12/02 10:44:04;;;;;;;83.47;9.52;;;8.80;92.90;;;;;;5011412;28;20057;-60
2021/12/02 10:46:30;;;;;;;82.25;8.82;;;8.80;92.90;;;;;;5038267;28;20058;-61
2021/12/02 10:48:55;;;;;;;90.80;8.65;;;8.80;92.90;;;;;;5005710;28;20484;-60
2021/12/02 10:51:42;;;;;;;71.93;8.35;;;8.90;92.90;;;;;;5004665;28;20021;-59
2021/12/02 10:54:15;;;;;;;97.63;10.60;;;8.90;92.90;;;;;;5038082;28;20078;-60
2021/12/02 10:56:43;;;;;;;65.53;8.10;;;8.90;92.90;;;;;;5001111;28;20380;-60
2021/12/02 10:59:31;;;;;;;67.07;8.73;;;8.90;93.00;;;;;;5011913;28;20480;-60
2021/12/02 11:02:05;;;;;;;91.82;9.15;;;8.90;92.90;;;;;;5038534;28;20536;-60
2021/12/02 11:04:36;;;;;;;102.38;10.77;;;8.90;92.90;;;;;;5007012;28;20049;-60
2021/12/02 11:07:02;;;;;;;97.22;10.63;;;8.90;93.00;;;;;;5014676;28;20048;-60
2021/12/02 11:09:31;;;;;;;96.10;10.50;;;8.90;92.90;;;;;;5006362;28;20213;-60
2021/12/02 11:12:12;;;;;;;88.28;11.35;;;9.00;92.80;;;;;;5022249;28;20113;-59
2021/12/02 11:15:08;;;;;;;75.75;9.10;;;9.00;92.80;;;;;;5045812;28;20035;-62
2021/12/02 11:17:37;;;;;;;109.25;10.23;;;9.00;92.80;;;;;;5021297;28;20041;-63
2021/12/02 11:20:06;;;;;;;106.85;10.70;;;9.00;92.80;;;;;;5023686;28;20052;-62
2021/12/02 11:22:31;;;;;;;101.32;10.88;;;8.90;92.80;;;;;;5023352;28;20025;-62
2021/12/02 11:24:58;;;;;;;99.53;11.00;;;9.00;92.70;;;;;;5023018;28;20110;-62
2021/12/02 11:27:29;;;;;;;87.05;10.85;;;9.00;92.60;;;;;;5040249;28;20087;-61
2021/12/02 11:30:09;;;;;;;94.65;10.60;;;9.10;92.70;;;;;;5005967;28;20029;-62
2021/12/02 11:32:40;;;;;;;111.07;11.18;;;9.10;92.80;;;;;;5019431;28;20522;-62
2021/12/02 11:35:14;;;;;;;89.00;10.65;;;9.10;92.70;;;;;;5006529;28;20048;-62
2021/12/02 11:37:45;;;;;;;80.18;11.25;;;9.20;92.80;;;;;;5026712;28;20647;-62
2021/12/02 11:40:14;;;;;;;107.15;13.18;;;9.20;92.70;;;;;;5042718;28;20488;-61
2021/12/02 11:42:40;;;;;;;122.60;11.85;;;9.20;92.60;;;;;;5024402;28;20040;-62
2021/12/02 11:45:06;;;;;;;125.82;12.48;;;9.10;92.60;;;;;;5021572;28;20060;-60
2021/12/02 11:47:34;;;;;;;80.03;10.43;;;9.20;92.50;;;;;;5052046;28;20072;-60
2021/12/02 11:49:59;;;;;;;128.27;12.07;;;9.20;92.40;;;;;;5022347;28;20045;-60
2021/12/02 11:52:25;;;;;;;105.25;11.02;;;9.20;92.40;;;;;;5005003;28;20053;-60
2021/12/02 11:54:52;;;;;;;115.65;11.13;;;9.10;92.40;;;;;;5005094;28;20021;-60
2021/12/02 11:57:18;;;;;;;87.47;10.57;;;9.10;92.40;;;;;;5021869;28;20510;-60
2021/12/02 11:59:43;;;;;;;85.85;9.05;;;9.20;92.30;;;;;;5020307;28;20037;-60
2021/12/02 12:02:09;;;;;;;122.30;11.73;;;9.20;92.20;;;;;;5020506;28;20056;-60
2021/12/02 12:04:38;;;;;;;117.03;11.95;;;9.20;92.30;;;;;;5004692;28;20052;-60
2021/12/02 12:07:13;;;;;;;108.93;11.55;;;9.20;92.20;;;;;;5005171;28;20076;-60
2021/12/02 12:09:39;;;;;;;83.60;11.30;;;9.20;92.20;;;;;;5037032;28;20100;-60
2021/12/02 12:12:05;;;;;;;113.38;10.88;;;9.20;92.20;;;;;;5021385;28;20116;-60
2021/12/02 12:14:37;;;;;;;87.53;10.63;;;9.20;92.10;;;;;;5025331;28;20029;-60
2021/12/02 12:17:14;;;;;;;90.82;12.02;;;9.20;92.20;;;;;;5037996;28;20504;-60
2021/12/02 12:19:47;;;;;;;128.10;13.45;;;9.20;92.20;;;;;;5007059;28;20106;-61
2021/12/02 12:22:27;;;;;;;103.25;10.65;;;9.30;92.10;;;;;;5032603;28;20021;-60
2021/12/02 12:24:53;;;;;;;114.25;13.60;;;9.30;92.00;;;;;;5039436;28;20147;-60
2021/12/02 12:27:21;;;;;;;86.28;12.02;;;9.30;92.00;;;;;;5038055;28;20499;-60
2021/12/02 12:30:11;;;;;;;99.60;12.05;;;9.30;92.10;;;;;;5023064;28;20444;-61
2021/12/02 12:32:55;;;;;;;99.65;10.77;;;9.30;92.00;;;;;;5040087;28;20048;-61
2021/12/02 12:35:48;;;;;;;90.88;11.55;;;9.30;91.90;;;;;;5009114;28;20451;-60
2021/12/02 12:38:21;;;;;;;80.65;10.43;;;9.30;92.00;;;;;;5010675;28;20045;-61
2021/12/02 12:40:49;;;;;;;103.05;12.35;;;9.30;92.00;;;;;;5022155;28;20048;-60
2021/12/02 12:43:20;;;;;;;115.75;12.13;;;9.30;92.10;;;;;;5024075;28;20104;-60
2021/12/02 12:45:45;;;;;;;58.85;9.07;;;9.30;92.00;;;;;;5004592;28;20033;-60
2021/12/02 12:48:25;;;;;;;77.05;10.52;;;9.40;92.10;;;;;;5021286;28;20036;-60
2021/12/02 12:50:50;;;;;;;72.40;8.88;;;9.30;92.00;;;;;;5025459;28;20392;-60
2021/12/02 12:53:31;;;;;;;76.80;8.57;;;9.40;92.00;;;;;;5021268;28;20032;-60
2021/12/02 12:55:57;;;;;;;38.33;5.70;;;9.40;92.00;;;;;;5041600;28;20029;-60
2021/12/02 12:58:33;;;;;;;39.30;5.50;;;9.30;92.00;;;;;;5039400;28;20048;-60
2021/12/02 13:01:02;;;;;;;45.08;6.30;;;9.30;91.90;;;;;;5036446;28;20117;-61
2021/12/02 13:03:38;;;;;;;44.63;7.07;;;9.30;92.00;;;;;;5035199;28;20921;-60
2021/12/02 13:06:19;;;;;;;31.42;5.70;;;9.30;92.00;;;;;;5045022;28;20033;-61